createdAt,value
2022-07-31T00:00:15.822Z,17.54
2022-07-31T00:02:42.371Z,17.50
2022-07-31T00:05:09.439Z,17.48
2022-07-31T00:07:35.958Z,17.42
2022-07-31T00:10:04.938Z,17.36
2022-07-31T00:12:31.803Z,17.27
2022-07-31T00:14:58.314Z,17.18
2022-07-31T00:17:24.833Z,17.10
2022-07-31T00:19:51.324Z,17.15
2022-07-31T00:22:17.812Z,17.21
2022-07-31T00:24:44.295Z,17.17
2022-07-31T00:27:11.114Z,17.19
2022-07-31T00:29:38.572Z,17.21
2022-07-31T00:32:06.131Z,17.18
2022-07-31T00:34:32.903Z,17.08
2022-07-31T00:36:59.478Z,17.03
2022-07-31T00:39:26.591Z,17.01
2022-07-31T00:41:54.910Z,16.92
2022-07-31T00:44:21.474Z,16.81
2022-07-31T00:46:48.306Z,16.81
2022-07-31T00:49:15.861Z,16.93
2022-07-31T00:51:42.531Z,17.01
2022-07-31T00:54:10.433Z,16.90
2022-07-31T00:56:43.965Z,16.78
2022-07-31T00:59:10.502Z,16.73
2022-07-31T01:01:37.051Z,16.70
2022-07-31T01:04:03.679Z,16.71
2022-07-31T01:06:30.271Z,16.82
2022-07-31T01:08:56.787Z,16.87
2022-07-31T01:11:38.990Z,16.87
2022-07-31T01:14:08.719Z,16.78
2022-07-31T01:16:46.682Z,16.68
2022-07-31T01:19:37.890Z,16.69
2022-07-31T01:22:33.170Z,16.74
2022-07-31T01:25:32.079Z,16.59
2022-07-31T01:28:10.673Z,16.45
2022-07-31T01:31:04.995Z,16.39
2022-07-31T01:34:08.150Z,16.30
2022-07-31T01:36:41.984Z,16.28
2022-07-31T01:39:08.540Z,16.15
2022-07-31T01:41:47.376Z,16.03
2022-07-31T01:44:18.941Z,15.96
2022-07-31T01:46:48.005Z,16.01
2022-07-31T01:49:19.108Z,16.05
2022-07-31T01:51:47.983Z,15.90
2022-07-31T01:54:18.241Z,15.73
2022-07-31T01:56:49.126Z,15.60
2022-07-31T01:59:22.549Z,15.55
2022-07-31T02:01:53.294Z,15.67
2022-07-31T02:04:21.472Z,15.74
2022-07-31T02:06:50.855Z,15.66
2022-07-31T02:09:22.364Z,15.48
2022-07-31T02:11:54.575Z,15.36
2022-07-31T02:14:24.031Z,15.35
2022-07-31T02:16:50.958Z,15.31
2022-07-31T02:19:21.209Z,15.30
2022-07-31T02:21:49.915Z,15.31
2022-07-31T02:24:17.507Z,15.22
2022-07-31T02:26:46.456Z,15.15
2022-07-31T02:29:19.243Z,15.27
2022-07-31T02:32:02.818Z,15.33
2022-07-31T02:34:32.391Z,15.27
2022-07-31T02:37:02.333Z,15.21
2022-07-31T02:39:32.479Z,15.19
2022-07-31T02:42:02.048Z,15.20
2022-07-31T02:44:32.362Z,15.14
2022-07-31T02:47:02.365Z,15.07
2022-07-31T02:49:30.832Z,15.06
2022-07-31T02:51:58.607Z,15.19
2022-07-31T02:54:26.344Z,15.32
2022-07-31T02:56:54.063Z,15.35
2022-07-31T02:59:22.151Z,15.35
2022-07-31T03:01:48.730Z,15.23
2022-07-31T03:04:15.538Z,15.11
2022-07-31T03:06:42.121Z,14.98
2022-07-31T03:09:08.750Z,14.97
2022-07-31T03:11:36.022Z,14.91
2022-07-31T03:14:05.320Z,14.85
2022-07-31T03:16:34.971Z,14.72
2022-07-31T03:19:04.039Z,14.60
2022-07-31T03:21:31.776Z,14.59
2022-07-31T03:24:00.408Z,14.64
2022-07-31T03:26:30.256Z,14.67
2022-07-31T03:29:00.708Z,14.63
2022-07-31T03:31:27.275Z,14.54
2022-07-31T03:33:53.795Z,14.56
2022-07-31T03:36:20.302Z,14.66
2022-07-31T03:38:50.406Z,14.61
2022-07-31T03:41:17.327Z,14.51
2022-07-31T03:43:48.079Z,14.52
2022-07-31T03:46:22.055Z,14.65
2022-07-31T03:48:52.340Z,14.79
2022-07-31T03:51:19.953Z,14.82
2022-07-31T03:53:47.952Z,14.76
2022-07-31T03:56:16.149Z,14.73
2022-07-31T03:58:43.307Z,14.76
2022-07-31T04:01:16.890Z,14.85
2022-07-31T04:03:47.480Z,14.98
2022-07-31T04:06:14.040Z,15.09
2022-07-31T04:08:40.760Z,15.17
2022-07-31T04:11:07.329Z,15.20
2022-07-31T04:13:33.874Z,15.17
2022-07-31T04:16:00.372Z,15.13
2022-07-31T04:18:26.999Z,15.20
2022-07-31T04:20:53.515Z,15.25
2022-07-31T04:23:20.026Z,15.29
2022-07-31T04:25:48.899Z,15.35
2022-07-31T04:28:15.420Z,15.39
2022-07-31T04:30:41.939Z,15.37
2022-07-31T04:33:08.447Z,15.42
2022-07-31T04:35:35.315Z,15.47
2022-07-31T04:38:02.169Z,15.44
2022-07-31T04:40:28.723Z,15.39
2022-07-31T04:42:55.352Z,15.34
2022-07-31T04:45:21.965Z,15.40
2022-07-31T04:47:48.632Z,15.54
2022-07-31T04:50:15.190Z,15.66
2022-07-31T04:52:41.721Z,15.77
2022-07-31T04:55:08.875Z,15.86
2022-07-31T04:57:35.415Z,15.95
2022-07-31T05:00:02.079Z,16.02
2022-07-31T05:02:28.847Z,16.09
2022-07-31T05:04:56.850Z,16.15
2022-07-31T05:07:24.110Z,16.20
2022-07-31T05:09:54.198Z,16.24
2022-07-31T05:12:23.000Z,16.30
2022-07-31T05:14:49.542Z,16.32
2022-07-31T05:17:16.055Z,16.36
2022-07-31T05:19:42.579Z,16.43
2022-07-31T05:22:09.531Z,16.47
2022-07-31T05:24:36.267Z,16.50
2022-07-31T05:27:03.884Z,16.53
2022-07-31T05:29:32.995Z,16.57
2022-07-31T05:32:01.088Z,16.61
2022-07-31T05:34:31.164Z,16.62
2022-07-31T05:37:01.380Z,16.63
2022-07-31T05:39:29.020Z,16.65
2022-07-31T05:41:55.559Z,16.69
2022-07-31T05:44:24.895Z,16.75
2022-07-31T05:49:18.750Z,16.73
2022-07-31T05:51:46.667Z,16.73
2022-07-31T05:54:13.634Z,16.70
2022-07-31T05:56:40.121Z,16.75
2022-07-31T05:59:06.868Z,16.86
2022-07-31T06:01:36.564Z,16.94
2022-07-31T06:04:03.323Z,17.06
2022-07-31T06:06:29.852Z,17.15
2022-07-31T06:09:00.612Z,17.23
2022-07-31T06:11:30.086Z,17.28
2022-07-31T06:13:56.583Z,17.33
2022-07-31T06:16:23.067Z,17.36
2022-07-31T06:18:49.575Z,17.39
2022-07-31T06:23:41.583Z,17.43
2022-07-31T06:26:08.147Z,17.54
2022-07-31T06:28:48.881Z,17.61
2022-07-31T06:31:20.885Z,17.65
2022-07-31T06:33:49.448Z,17.71
2022-07-31T06:36:17.559Z,17.80
2022-07-31T06:38:44.098Z,17.87
2022-07-31T06:41:10.580Z,17.92
2022-07-31T06:43:37.450Z,17.97
2022-07-31T06:46:03.948Z,18.04
2022-07-31T06:48:30.433Z,18.15
2022-07-31T06:51:27.888Z,18.27
2022-07-31T06:53:43.522Z,18.33
2022-07-31T06:56:10.091Z,18.36
2022-07-31T06:58:36.620Z,18.42
2022-07-31T07:01:03.251Z,18.53
2022-07-31T07:03:29.798Z,18.64
2022-07-31T07:05:56.316Z,18.70
2022-07-31T07:08:23.673Z,18.69
2022-07-31T07:10:50.188Z,18.83
2022-07-31T07:13:16.742Z,18.93
2022-07-31T07:15:43.235Z,19.08
2022-07-31T07:18:09.727Z,19.19
2022-07-31T07:20:36.247Z,19.34
2022-07-31T07:23:02.992Z,19.45
2022-07-31T07:25:29.523Z,19.59
2022-07-31T07:27:56.727Z,19.71
2022-07-31T07:30:25.016Z,19.84
2022-07-31T07:32:51.514Z,19.97
2022-07-31T07:35:18.141Z,20.11
2022-07-31T07:37:44.641Z,20.18
2022-07-31T07:40:11.711Z,20.30
2022-07-31T07:42:38.233Z,20.42
2022-07-31T07:45:07.847Z,20.58
2022-07-31T07:48:05.735Z,20.71
2022-07-31T07:50:22.737Z,20.84
2022-07-31T07:52:53.980Z,20.94
2022-07-31T07:55:20.588Z,21.04
2022-07-31T07:57:47.144Z,21.12
2022-07-31T08:00:14.588Z,21.20
2022-07-31T08:02:42.531Z,21.21
2022-07-31T08:05:09.760Z,21.26
2022-07-31T08:07:42.022Z,21.31
2022-07-31T08:10:10.268Z,21.19
2022-07-31T08:12:37.766Z,21.20
2022-07-31T08:15:05.628Z,21.29
2022-07-31T08:17:32.169Z,21.39
2022-07-31T08:19:58.699Z,21.51
2022-07-31T08:22:25.266Z,21.61
2022-07-31T08:24:51.841Z,21.67
2022-07-31T08:27:24.268Z,21.69
2022-07-31T08:30:07.347Z,21.64
2022-07-31T08:32:33.943Z,21.72
2022-07-31T08:35:00.541Z,21.72
2022-07-31T08:38:01.290Z,21.71
2022-07-31T08:40:13.779Z,21.53
2022-07-31T08:42:40.287Z,21.68
2022-07-31T08:45:08.913Z,21.80
2022-07-31T08:47:36.549Z,21.91
2022-07-31T08:50:06.126Z,21.99
2022-07-31T08:52:35.088Z,22.13
2022-07-31T08:55:08.014Z,22.21
2022-07-31T08:57:36.078Z,22.27
2022-07-31T09:00:07.427Z,22.28
2022-07-31T09:02:34.075Z,22.31
2022-07-31T09:05:00.659Z,22.32
2022-07-31T09:07:27.219Z,22.36
2022-07-31T09:09:53.734Z,22.36
2022-07-31T09:12:33.260Z,22.33
2022-07-31T09:15:01.413Z,22.36
2022-07-31T09:17:35.647Z,22.44
2022-07-31T09:20:04.343Z,22.54
2022-07-31T09:22:31.939Z,22.63
2022-07-31T09:25:12.740Z,22.80
2022-07-31T09:27:40.043Z,22.90
2022-07-31T09:30:08.824Z,22.93
2022-07-31T09:32:35.355Z,22.98
2022-07-31T09:35:15.355Z,22.98
2022-07-31T09:37:47.499Z,23.12
2022-07-31T09:40:14.351Z,23.21
2022-07-31T09:42:46.024Z,23.28
2022-07-31T09:45:23.887Z,23.43
2022-07-31T09:48:12.572Z,23.46
2022-07-31T09:50:54.612Z,23.51
2022-07-31T09:53:22.380Z,23.64
2022-07-31T09:55:57.746Z,23.70
2022-07-31T09:58:24.821Z,23.71
2022-07-31T10:00:53.809Z,23.71
2022-07-31T10:03:22.300Z,23.73
2022-07-31T10:05:49.611Z,23.66
2022-07-31T10:08:17.935Z,23.71
2022-07-31T10:10:46.510Z,23.80
2022-07-31T10:13:19.221Z,23.95
2022-07-31T10:15:48.480Z,24.20
2022-07-31T10:18:21.020Z,24.47
2022-07-31T10:21:06.309Z,24.65
2022-07-31T10:23:40.553Z,24.71
2022-07-31T10:26:07.655Z,24.73
2022-07-31T10:28:38.053Z,24.69
2022-07-31T10:31:06.048Z,24.63
2022-07-31T10:33:44.116Z,24.58
2022-07-31T10:36:23.782Z,24.57
2022-07-31T10:39:01.679Z,24.57
2022-07-31T10:41:59.571Z,24.54
2022-07-31T10:44:38.673Z,24.54
2022-07-31T10:47:14.019Z,24.55
2022-07-31T10:49:46.228Z,24.47
2022-07-31T10:52:12.847Z,24.53
2022-07-31T10:54:45.687Z,24.65
2022-07-31T10:57:55.970Z,24.57
2022-07-31T11:00:28.326Z,24.75
2022-07-31T11:02:57.113Z,24.87
2022-07-31T11:05:24.726Z,24.99
2022-07-31T11:08:20.867Z,24.90
2022-07-31T11:10:56.150Z,24.95
2022-07-31T11:13:33.588Z,25.09
2022-07-31T11:16:06.284Z,25.18
2022-07-31T11:18:34.631Z,25.26
2022-07-31T11:21:22.797Z,25.42
2022-07-31T11:23:56.305Z,25.37
2022-07-31T11:26:33.760Z,25.51
2022-07-31T11:30:00.560Z,25.56
2022-07-31T11:32:15.018Z,25.55
2022-07-31T11:34:55.590Z,25.64
2022-07-31T11:37:56.409Z,25.69
2022-07-31T11:40:22.174Z,25.77
2022-07-31T11:43:10.430Z,25.82
2022-07-31T11:45:50.378Z,25.80
2022-07-31T11:48:19.678Z,25.86
2022-07-31T11:50:48.734Z,25.82
2022-07-31T11:53:16.202Z,25.74
2022-07-31T11:56:00.789Z,25.61
2022-07-31T11:58:28.994Z,25.67
2022-07-31T12:01:00.025Z,25.80
2022-07-31T12:03:38.780Z,25.72
2022-07-31T12:06:09.925Z,25.78
2022-07-31T12:08:37.675Z,25.82
2022-07-31T12:11:09.329Z,25.96
2022-07-31T12:13:37.371Z,26.06
2022-07-31T12:16:10.521Z,26.11
2022-07-31T12:18:59.121Z,26.22
2022-07-31T12:21:34.923Z,26.47
2022-07-31T12:24:03.075Z,26.63
2022-07-31T12:26:33.119Z,26.76
2022-07-31T12:29:05.594Z,26.90
2022-07-31T12:31:52.064Z,26.71
2022-07-31T12:34:42.400Z,26.71
2022-07-31T12:37:19.030Z,26.71
2022-07-31T12:40:00.905Z,26.66
2022-07-31T12:42:39.300Z,26.72
2022-07-31T12:45:19.947Z,26.90
2022-07-31T12:47:52.169Z,26.88
2022-07-31T12:50:21.358Z,26.89
2022-07-31T12:52:48.075Z,26.96
2022-07-31T12:55:17.137Z,27.04
2022-07-31T12:57:51.143Z,27.03
2022-07-31T13:00:24.782Z,26.89
2022-07-31T13:02:57.244Z,27.02
2022-07-31T13:05:25.254Z,27.11
2022-07-31T13:07:52.464Z,27.19
2022-07-31T13:10:23.657Z,27.16
2022-07-31T13:12:51.761Z,27.17
2022-07-31T13:15:20.839Z,27.19
2022-07-31T13:17:50.780Z,26.95
2022-07-31T13:20:19.096Z,26.90
2022-07-31T13:22:45.717Z,26.99
2022-07-31T13:25:12.544Z,26.94
2022-07-31T13:27:39.449Z,27.03
2022-07-31T13:30:09.667Z,27.15
2022-07-31T13:32:36.715Z,27.05
2022-07-31T13:35:27.880Z,27.21
2022-07-31T13:37:51.251Z,27.35
2022-07-31T13:40:19.554Z,27.40
2022-07-31T13:42:46.117Z,27.33
2022-07-31T13:45:12.647Z,27.33
2022-07-31T13:47:51.244Z,27.41
2022-07-31T13:50:19.667Z,27.21
2022-07-31T13:52:46.230Z,27.22
2022-07-31T13:55:12.842Z,27.29
2022-07-31T13:57:39.350Z,27.06
2022-07-31T14:00:07.315Z,26.90
2022-07-31T14:02:33.973Z,26.75
2022-07-31T14:05:00.551Z,26.83
2022-07-31T14:07:45.347Z,26.99
2022-07-31T14:10:19.924Z,27.08
2022-07-31T14:12:47.177Z,27.12
2022-07-31T14:15:13.841Z,27.14
2022-07-31T14:17:40.476Z,27.32
2022-07-31T14:20:07.801Z,27.41
2022-07-31T14:22:34.329Z,27.44
2022-07-31T14:25:00.954Z,27.30
2022-07-31T14:27:27.580Z,27.35
2022-07-31T14:29:54.152Z,27.47
2022-07-31T14:32:22.031Z,27.58
2022-07-31T14:34:51.389Z,27.70
2022-07-31T14:37:18.162Z,27.90
2022-07-31T14:39:44.707Z,27.82
2022-07-31T14:42:12.255Z,27.81
2022-07-31T14:44:41.760Z,27.83
2022-07-31T14:47:11.048Z,27.75
2022-07-31T14:50:06.881Z,27.68
2022-07-31T14:52:26.707Z,27.59
2022-07-31T14:54:54.189Z,27.56
2022-07-31T14:57:22.363Z,27.59
2022-07-31T14:59:50.255Z,27.54
2022-07-31T15:02:21.790Z,27.62
2022-07-31T15:04:49.085Z,27.62
2022-07-31T15:07:36.654Z,27.63
2022-07-31T15:10:04.878Z,27.51
2022-07-31T15:12:31.788Z,27.48
2022-07-31T15:14:58.497Z,27.43
2022-07-31T15:17:25.256Z,27.41
2022-07-31T15:19:51.901Z,27.40
2022-07-31T15:22:19.200Z,27.40
2022-07-31T15:24:48.985Z,27.37
2022-07-31T15:27:18.810Z,27.35
2022-07-31T15:30:04.506Z,27.40
2022-07-31T15:32:32.599Z,27.25
2022-07-31T15:34:59.221Z,27.20
2022-07-31T15:37:25.698Z,27.14
2022-07-31T15:40:01.572Z,27.09
2022-07-31T15:42:33.182Z,26.88
2022-07-31T15:44:59.730Z,26.69
2022-07-31T15:47:26.387Z,26.53
2022-07-31T15:49:52.916Z,26.42
2022-07-31T15:52:19.780Z,26.36
2022-07-31T15:54:47.446Z,26.20
2022-07-31T15:57:23.116Z,26.19
2022-07-31T15:59:54.121Z,26.15
2022-07-31T16:02:21.639Z,26.17
2022-07-31T16:04:52.755Z,26.24
2022-07-31T16:08:29.796Z,26.33
2022-07-31T16:10:17.678Z,26.39
2022-07-31T16:12:48.609Z,26.54
2022-07-31T16:15:16.931Z,26.63
2022-07-31T16:17:44.627Z,26.60
2022-07-31T16:20:26.379Z,26.43
2022-07-31T16:23:01.367Z,26.42
2022-07-31T16:25:32.157Z,26.32
2022-07-31T16:28:01.555Z,26.19
2022-07-31T16:30:28.121Z,26.10
2022-07-31T16:32:54.957Z,26.05
2022-07-31T16:35:22.025Z,26.06
2022-07-31T16:37:52.376Z,25.84
2022-07-31T16:40:28.364Z,25.81
2022-07-31T16:43:00.822Z,25.79
2022-07-31T16:45:28.472Z,25.76
2022-07-31T16:47:54.967Z,25.68
2022-07-31T16:50:21.815Z,25.64
2022-07-31T16:52:52.637Z,25.62
2022-07-31T16:55:46.209Z,25.41
2022-07-31T16:58:11.758Z,25.09
2022-07-31T17:00:39.883Z,25.10
2022-07-31T17:03:06.738Z,25.07
2022-07-31T17:05:53.313Z,24.97
2022-07-31T17:08:19.803Z,24.99
2022-07-31T17:10:47.115Z,25.02
2022-07-31T17:13:15.643Z,25.00
2022-07-31T17:15:42.184Z,25.02
2022-07-31T17:18:08.750Z,24.91
2022-07-31T17:20:37.039Z,24.88
2022-07-31T17:23:09.410Z,24.82
2022-07-31T17:25:35.922Z,24.84
2022-07-31T17:28:02.434Z,24.88
2022-07-31T17:30:28.976Z,24.75
2022-07-31T17:32:55.564Z,24.71
2022-07-31T17:35:22.289Z,24.62
2022-07-31T17:37:48.775Z,24.57
2022-07-31T17:40:40.873Z,24.63
2022-07-31T17:43:01.711Z,24.34
2022-07-31T17:45:50.732Z,24.48
2022-07-31T17:48:19.738Z,24.25
2022-07-31T17:50:46.296Z,24.43
2022-07-31T17:53:12.820Z,24.53
2022-07-31T17:55:42.473Z,24.53
2022-07-31T17:58:09.126Z,24.50
2022-07-31T18:00:35.780Z,24.52
2022-07-31T18:03:02.344Z,24.55
2022-07-31T18:05:29.254Z,24.57
2022-07-31T18:07:55.898Z,24.51
2022-07-31T18:10:32.650Z,24.46
2022-07-31T18:13:09.461Z,24.22
2022-07-31T18:15:36.173Z,24.28
2022-07-31T18:18:02.929Z,24.26
2022-07-31T18:20:29.482Z,24.12
2022-07-31T18:22:56.062Z,24.10
2022-07-31T18:25:22.817Z,24.08
2022-07-31T18:27:50.251Z,24.16
2022-07-31T18:30:16.780Z,24.14
2022-07-31T18:32:44.043Z,24.13
2022-07-31T18:35:11.027Z,24.05
2022-07-31T18:37:37.633Z,24.08
2022-07-31T18:40:06.122Z,23.98
2022-07-31T18:42:32.742Z,23.90
2022-07-31T18:44:59.286Z,23.83
2022-07-31T18:47:26.567Z,23.79
2022-07-31T18:51:00.587Z,23.69
2022-07-31T18:52:39.692Z,23.24
2022-07-31T18:55:07.154Z,23.32
2022-07-31T18:57:33.704Z,23.33
2022-07-31T19:00:00.365Z,23.30
2022-07-31T19:02:28.045Z,23.32
2022-07-31T19:04:54.836Z,23.27
2022-07-31T19:07:21.379Z,23.23
2022-07-31T19:09:47.970Z,23.17
2022-07-31T19:12:14.721Z,23.15
2022-07-31T19:14:41.671Z,23.06
2022-07-31T19:17:08.603Z,23.00
2022-07-31T19:19:55.087Z,22.98
2022-07-31T19:22:23.803Z,22.90
2022-07-31T19:24:51.555Z,22.85
2022-07-31T19:27:19.692Z,22.83
2022-07-31T19:29:46.238Z,22.79
2022-07-31T19:32:12.932Z,22.70
2022-07-31T19:34:39.550Z,22.62
2022-07-31T19:37:09.827Z,22.57
2022-07-31T19:39:36.839Z,22.55
2022-07-31T19:42:12.026Z,22.52
2022-07-31T19:44:39.223Z,22.36
2022-07-31T19:47:06.307Z,22.33
2022-07-31T19:49:37.884Z,22.25
2022-07-31T19:52:05.994Z,22.13
2022-07-31T19:54:32.894Z,22.09
2022-07-31T19:56:59.436Z,22.16
2022-07-31T19:59:26.020Z,22.24
2022-07-31T20:01:52.557Z,22.20
2022-07-31T20:04:19.118Z,22.25
2022-07-31T20:06:45.664Z,22.25
2022-07-31T20:09:12.169Z,22.24
2022-07-31T20:11:39.311Z,22.30
2022-07-31T20:14:05.838Z,22.30
2022-07-31T20:16:32.871Z,22.33
2022-07-31T20:19:00.338Z,22.34
2022-07-31T20:21:27.436Z,22.36
2022-07-31T20:24:02.787Z,22.34
2022-07-31T20:26:31.375Z,22.32
2022-07-31T20:28:57.877Z,22.30
2022-07-31T20:31:24.422Z,22.31
2022-07-31T20:33:57.933Z,22.34
2022-07-31T20:36:26.310Z,22.33
2022-07-31T20:38:53.304Z,22.26
2022-07-31T20:41:20.065Z,22.20
2022-07-31T20:43:46.610Z,22.13
2022-07-31T20:46:13.208Z,22.13
2022-07-31T20:48:39.935Z,22.13
2022-07-31T20:51:08.998Z,22.00
2022-07-31T20:53:35.613Z,21.88
2022-07-31T20:56:02.148Z,21.89
2022-07-31T20:58:28.995Z,21.82
2022-07-31T21:00:55.833Z,21.72
2022-07-31T21:03:22.539Z,21.68
2022-07-31T21:05:49.888Z,21.75
2022-07-31T21:08:17.648Z,21.84
2022-07-31T21:10:44.799Z,21.88
2022-07-31T21:13:12.262Z,21.91
2022-07-31T21:15:43.707Z,22.27
2022-07-31T21:18:17.631Z,21.99
2022-07-31T21:20:51.874Z,22.02
2022-07-31T21:23:25.130Z,21.97
2022-07-31T21:25:53.773Z,22.05
2022-07-31T21:28:21.998Z,21.93
2022-07-31T21:30:49.131Z,21.85
2022-07-31T21:33:17.776Z,21.69
2022-07-31T21:35:45.753Z,21.62
2022-07-31T21:38:15.110Z,21.55
2022-07-31T21:40:43.175Z,21.49
2022-07-31T21:43:10.052Z,21.42
2022-07-31T21:45:50.964Z,21.19
2022-07-31T21:48:26.938Z,21.11
2022-07-31T21:50:55.038Z,21.16
2022-07-31T21:53:23.073Z,21.26
2022-07-31T21:55:50.061Z,21.23
2022-07-31T21:58:17.110Z,21.21
2022-07-31T22:00:44.477Z,21.18
2022-07-31T22:03:11.185Z,21.12
2022-07-31T22:05:56.404Z,21.17
2022-07-31T22:08:22.950Z,21.11
2022-07-31T22:10:51.592Z,20.94
2022-07-31T22:13:19.677Z,20.73
2022-07-31T22:15:59.371Z,20.63
2022-07-31T22:18:29.678Z,20.62
2022-07-31T22:20:57.766Z,20.62
2022-07-31T22:23:26.044Z,20.62
2022-07-31T22:25:53.134Z,20.55
2022-07-31T22:28:22.123Z,20.42
2022-07-31T22:30:50.782Z,20.37
2022-07-31T22:33:17.563Z,20.36
2022-07-31T22:35:44.238Z,20.36
2022-07-31T22:38:13.478Z,20.39
2022-07-31T22:40:40.405Z,20.30
2022-07-31T22:43:47.455Z,20.28
2022-07-31T22:45:59.764Z,20.01
2022-07-31T22:48:27.783Z,20.17
2022-07-31T22:50:55.767Z,20.19
2022-07-31T22:53:22.396Z,20.23
2022-07-31T22:55:49.000Z,20.21
2022-07-31T22:58:15.527Z,20.18
2022-07-31T23:00:42.922Z,20.13
2022-07-31T23:03:09.507Z,20.01
2022-07-31T23:06:02.549Z,19.91
2022-07-31T23:08:22.615Z,19.73
2022-07-31T23:10:49.218Z,19.67
2022-07-31T23:13:15.722Z,19.67
2022-07-31T23:15:42.340Z,19.72
2022-07-31T23:18:08.847Z,19.71
2022-07-31T23:20:35.352Z,19.71
2022-07-31T23:23:01.874Z,19.68
2022-07-31T23:25:28.371Z,19.71
2022-07-31T23:27:54.875Z,19.79
2022-07-31T23:30:21.595Z,19.80
2022-07-31T23:32:48.092Z,19.77
2022-07-31T23:35:14.979Z,19.75
2022-07-31T23:37:41.488Z,19.69
2022-07-31T23:40:08.698Z,19.63
2022-07-31T23:42:38.204Z,19.64
2022-07-31T23:45:11.568Z,19.61
2022-07-31T23:47:45.716Z,19.64
2022-07-31T23:50:15.004Z,19.63
2022-07-31T23:52:43.445Z,19.64
2022-07-31T23:55:10.471Z,19.67
2022-07-31T23:57:36.995Z,19.60
